Time;durP1;ratioP1;P1;durP2;ratioP2;P2;SDS_P1;SDS_P2;PMS_P1;PMS_P2;Temp;Humidity;BMP_temperature;BMP_pressure;BME280_temperature;BME280_humidity;BME280_pressure;Samples;Min_cycle;Max_cycle;Signal;HPM_P1;HPM_P2
2022/08/01 00:01:24;;;;;;;3.75;2.10;;;;;;;22.68;46.88;98099.66;5053404;28;20227;-70
2022/08/01 00:03:51;;;;;;;2.30;2.10;;;;;;;22.62;46.89;98100.84;5053057;28;20205;-70
2022/08/01 00:06:18;;;;;;;2.10;1.90;;;;;;;22.63;47.09;98097.03;5053387;28;20292;-70
2022/08/01 00:08:45;;;;;;;2.20;1.97;;;;;;;22.62;47.04;98095.44;5053729;28;20252;-70
2022/08/01 00:11:12;;;;;;;2.85;1.85;;;;;;;22.46;47.92;98096.75;5052860;28;20237;-70
2022/08/01 00:13:39;;;;;;;3.47;1.70;;;;;;;22.53;47.36;98100.72;5053311;28;20610;-70
2022/08/01 00:16:05;;;;;;;2.33;2.00;;;;;;;22.41;48.02;98099.50;5053271;28;20240;-70
2022/08/01 00:18:31;;;;;;;3.88;2.10;;;;;;;22.41;48.20;98104.94;5052847;28;20614;-70
2022/08/01 00:20:58;;;;;;;2.00;1.90;;;;;;;22.39;48.50;98099.00;5053341;28;20292;-70
2022/08/01 00:23:25;;;;;;;2.47;2.27;;;;;;;22.36;48.21;98096.88;5057482;28;20271;-70
2022/08/01 00:25:51;;;;;;;2.47;1.77;;;;;;;22.39;48.26;98099.78;5057287;28;20288;-70
2022/08/01 00:28:18;;;;;;;2.30;2.10;;;;;;;22.41;47.98;98102.22;5056985;28;20201;-70
2022/08/01 00:30:44;;;;;;;2.10;2.00;;;;;;;22.31;48.34;98105.06;5056683;28;20722;-70
2022/08/01 00:33:11;;;;;;;2.50;1.83;;;;;;;22.26;48.67;98108.69;5057060;28;20211;-70
2022/08/01 00:35:38;;;;;;;2.00;1.80;;;;;;;22.20;48.92;98112.53;5056758;28;20209;-70
2022/08/01 00:38:04;;;;;;;2.00;1.90;;;;;;;22.19;49.21;98112.81;5057027;28;20317;-70
2022/08/01 00:40:31;;;;;;;3.03;2.10;;;;;;;22.22;49.11;98114.94;5056880;28;20222;-70
2022/08/01 00:42:57;;;;;;;2.50;2.17;;;;;;;22.16;49.18;98108.78;5056670;28;20640;-70
2022/08/01 00:45:24;;;;;;;2.33;2.13;;;;;;;22.19;49.24;98110.13;5056607;28;20206;-70
2022/08/01 00:47:50;;;;;;;2.13;2.03;;;;;;;22.20;49.38;98114.44;5056737;28;20252;-70
2022/08/01 00:50:17;;;;;;;4.70;2.00;;;;;;;22.17;49.25;98109.63;5056372;28;20252;-70
2022/08/01 00:52:44;;;;;;;1.93;1.83;;;;;;;22.05;50.12;98109.22;5056746;28;20292;-70
2022/08/01 00:55:13;;;;;;;4.37;2.20;;;;;;;22.07;49.83;98113.25;5056678;28;20202;-70
2022/08/01 00:57:40;;;;;;;2.10;1.90;;;;;;;22.09;49.89;98118.38;5056685;28;20229;-70
2022/08/01 01:00:08;;;;;;;2.33;2.00;;;;;;;22.13;50.04;98112.09;5056274;28;20729;-70
2022/08/01 01:02:36;;;;;;;2.67;2.20;;;;;;;22.18;49.85;98119.34;5056588;28;20240;-70
2022/08/01 01:05:03;;;;;;;3.37;2.20;;;;;;;22.13;50.21;98114.00;5056578;28;20202;-70
2022/08/01 01:07:42;;;;;;;2.17;1.80;;;;;;;22.04;50.95;98118.44;5056432;28;20300;-70
2022/08/01 01:10:23;;;;;;;2.47;2.10;;;;;;;22.05;51.09;98115.44;5056119;28;20722;-70
2022/08/01 01:12:56;;;;;;;2.47;2.07;;;;;;;22.03;51.17;98116.84;5056125;28;20203;-70
2022/08/01 01:15:39;;;;;;;2.00;1.87;;;;;;;22.13;50.82;98114.00;5039003;28;20186;-70
2022/08/01 01:18:14;;;;;;;3.53;2.10;;;;;;;22.00;51.72;98125.53;5056221;28;20236;-70
2022/08/01 01:20:47;;;;;;;2.30;2.10;;;;;;;21.93;52.16;98130.50;5056548;28;20596;-70
2022/08/01 01:23:34;;;;;;;2.63;2.27;;;;;;;21.92;52.24;98126.16;5055837;28;20640;-70
2022/08/01 01:26:27;;;;;;;2.40;2.20;;;;;;;21.85;53.17;98136.56;5055903;28;20711;-70
2022/08/01 01:29:18;;;;;;;3.27;2.17;;;;;;;21.93;52.62;98128.59;5055656;28;20233;-70
2022/08/01 01:31:49;;;;;;;2.40;1.83;;;;;;;21.98;52.32;98122.31;5045794;28;20236;-70
2022/08/01 01:34:19;;;;;;;4.40;2.33;;;;;;;21.98;52.65;98130.44;5055917;28;20204;-70
2022/08/01 01:36:48;;;;;;;2.20;2.00;;;;;;;22.00;52.67;98128.25;5055992;28;20232;-70
2022/08/01 01:39:16;;;;;;;2.07;1.97;;;;;;;21.98;52.55;98133.94;5055521;28;20229;-70
2022/08/01 01:41:44;;;;;;;2.27;2.17;;;;;;;22.01;52.47;98130.66;5055824;28;20284;-70
2022/08/01 01:44:11;;;;;;;3.67;2.23;;;;;;;21.96;53.12;98132.63;5056064;28;20296;-70
2022/08/01 01:46:38;;;;;;;2.50;2.30;;;;;;;21.93;53.53;98133.22;5055714;28;20200;-70
2022/08/01 01:49:06;;;;;;;2.67;2.27;;;;;;;21.93;53.16;98133.22;5055652;28;20312;-70
2022/08/01 01:51:33;;;;;;;2.40;2.20;;;;;;;21.95;53.60;98133.72;5055590;28;20232;-70
2022/08/01 01:54:01;;;;;;;2.53;2.20;;;;;;;21.92;53.78;98137.81;5055615;28;20205;-70
2022/08/01 01:56:30;;;;;;;2.20;2.00;;;;;;;21.92;53.96;98142.41;5055549;28;20579;-70
2022/08/01 01:59:01;;;;;;;2.17;2.07;;;;;;;21.84;54.30;98140.38;5055101;28;20667;-70
2022/08/01 02:01:30;;;;;;;2.20;2.10;;;;;;;21.77;55.02;98139.91;5055883;28;20538;-70
2022/08/01 02:03:58;;;;;;;2.80;2.60;;;;;;;21.66;55.42;98136.47;5055442;28;20262;-70
2022/08/01 02:06:26;;;;;;;2.20;2.03;;;;;;;21.69;55.22;98135.09;5055107;28;20207;-70
2022/08/01 02:08:55;;;;;;;2.67;2.10;;;;;;;21.63;55.93;98141.66;5055314;28;20236;-70
2022/08/01 02:11:22;;;;;;;2.80;2.20;;;;;;;21.69;55.49;98138.63;5055232;28;20316;-70
2022/08/01 02:13:54;;;;;;;2.13;2.00;;;;;;;21.69;55.35;98137.78;5054935;28;20255;-70
2022/08/01 02:16:23;;;;;;;2.30;2.10;;;;;;;21.65;55.49;98131.34;5054897;28;20645;-70
2022/08/01 02:18:50;;;;;;;2.67;2.13;;;;;;;21.62;55.38;98131.94;5055103;28;20225;-70
2022/08/01 02:21:25;;;;;;;2.20;2.00;;;;;;;21.53;56.19;98144.47;5055111;28;20299;-70
2022/08/01 02:23:54;;;;;;;3.43;2.20;;;;;;;21.45;56.83;98140.50;5055055;28;20280;-70
2022/08/01 02:26:23;;;;;;;2.93;2.10;;;;;;;21.48;56.60;98144.53;5037178;28;20304;-70
2022/08/01 02:29:14;;;;;;;3.00;1.97;;;;;;;21.42;57.02;98140.25;5054671;28;20229;-70
2022/08/01 02:31:46;;;;;;;3.80;2.43;;;;;;;21.34;57.54;98144.38;5054512;28;20232;-70
2022/08/01 02:34:18;;;;;;;2.33;2.23;;;;;;;21.38;57.19;98142.72;5037517;28;20196;-70
2022/08/01 02:36:47;;;;;;;2.33;2.10;;;;;;;21.40;57.18;98147.84;5054821;28;20280;-70
2022/08/01 02:39:17;;;;;;;3.40;1.87;;;;;;;21.37;57.43;98145.69;5054735;28;20591;-70
2022/08/01 02:41:47;;;;;;;2.23;2.00;;;;;;;21.29;57.67;98149.06;5054628;28;20205;-70
2022/08/01 02:44:23;;;;;;;3.70;2.43;;;;;;;21.23;58.24;98152.88;5053588;28;20715;-70
2022/08/01 02:46:55;;;;;;;2.30;2.20;;;;;;;21.19;58.31;98159.94;5036954;28;20185;-70
2022/08/01 02:49:24;;;;;;;2.30;2.10;;;;;;;21.25;57.67;98148.78;5054408;28;20226;-71
2022/08/01 02:51:54;;;;;;;2.37;2.20;;;;;;;21.34;57.68;98159.81;5053894;28;20700;-70
2022/08/01 02:54:22;;;;;;;3.50;2.40;;;;;;;21.25;58.12;98145.31;5054408;28;20295;-70
2022/08/01 02:56:51;;;;;;;2.00;1.80;;;;;;;21.19;58.65;98157.22;5054376;28;20214;-70
2022/08/01 02:59:20;;;;;;;2.63;2.20;;;;;;;21.19;58.78;98157.22;5054228;28;20228;-70
2022/08/01 03:01:48;;;;;;;2.90;2.20;;;;;;;21.18;58.87;98155.63;5054272;28;20197;-70
2022/08/01 03:04:17;;;;;;;2.50;2.30;;;;;;;21.03;59.22;98156.56;5036527;28;20205;-70
2022/08/01 03:06:45;;;;;;;2.70;2.50;;;;;;;21.05;59.19;98158.97;5054000;28;20213;-70
2022/08/01 03:09:12;;;;;;;4.50;2.47;;;;;;;21.09;59.29;98160.03;5053683;28;20733;-70
2022/08/01 03:11:42;;;;;;;5.00;2.40;;;;;;;21.07;59.27;98154.13;5054004;28;20248;-70
2022/08/01 03:14:10;;;;;;;2.30;2.10;;;;;;;21.04;59.36;98155.50;5053642;28;20209;-70
2022/08/01 03:16:39;;;;;;;2.43;2.23;;;;;;;20.95;60.16;98153.66;5035982;28;20207;-70
2022/08/01 03:19:08;;;;;;;2.47;2.27;;;;;;;20.95;60.23;98159.06;5053748;28;20308;-70
2022/08/01 03:21:35;;;;;;;2.53;2.33;;;;;;;20.90;60.89;98154.53;5054207;28;20201;-70
2022/08/01 03:24:04;;;;;;;2.73;2.17;;;;;;;20.92;60.90;98148.81;5036271;28;20214;-70
2022/08/01 03:26:34;;;;;;;1.90;1.80;;;;;;;20.93;60.58;98153.16;5053352;28;20758;-70
2022/08/01 03:29:07;;;;;;;2.77;2.10;;;;;;;20.90;61.16;98150.97;5053200;28;20728;-70
2022/08/01 03:31:36;;;;;;;2.60;2.40;;;;;;;20.90;61.08;98156.38;5053302;28;20221;-70
2022/08/01 03:34:03;;;;;;;2.80;2.33;;;;;;;20.86;61.57;98155.31;5053797;28;20212;-70
2022/08/01 03:36:32;;;;;;;2.13;1.93;;;;;;;20.84;61.81;98160.22;5035366;28;20296;-70
2022/08/01 03:39:01;;;;;;;2.40;2.30;;;;;;;20.86;61.83;98152.63;5053266;28;20229;-70
2022/08/01 03:41:33;;;;;;;2.50;2.20;;;;;;;20.86;61.78;98156.16;5035583;28;20229;-70
2022/08/01 03:44:05;;;;;;;2.17;2.07;;;;;;;20.85;62.27;98156.41;5053330;28;20193;-70
2022/08/01 03:46:41;;;;;;;2.27;2.17;;;;;;;20.87;62.34;98167.75;5053364;28;20236;-70
2022/08/01 03:49:15;;;;;;;2.00;1.77;;;;;;;20.87;62.40;98165.03;5053285;28;20234;-70
2022/08/01 03:51:41;;;;;;;1.97;1.87;;;;;;;20.82;62.81;98170.47;5053208;28;20288;-70
2022/08/01 03:54:11;;;;;;;2.60;2.40;;;;;;;20.84;62.91;98166.41;5053618;28;20205;-70
2022/08/01 03:56:38;;;;;;;1.90;1.80;;;;;;;20.80;63.35;98162.66;5053191;28;20216;-70
2022/08/01 03:59:05;;;;;;;2.67;1.97;;;;;;;20.79;63.29;98160.25;5053231;28;20252;-70
2022/08/01 04:01:34;;;;;;;2.67;2.10;;;;;;;20.80;63.40;98161.88;5053260;28;20297;-70
2022/08/01 04:04:01;;;;;;;3.17;2.20;;;;;;;20.80;63.76;98167.28;5052858;28;20755;-70
2022/08/01 04:06:27;;;;;;;2.10;2.00;;;;;;;20.78;63.67;98166.72;5052717;28;20209;-70
2022/08/01 04:08:58;;;;;;;2.93;1.93;;;;;;;20.79;64.07;98161.03;5052969;28;20229;-70
2022/08/01 04:11:27;;;;;;;2.03;1.90;;;;;;;20.75;64.19;98173.50;5053022;28;20319;-71
2022/08/01 04:13:54;;;;;;;1.97;1.87;;;;;;;20.76;64.17;98171.63;5053148;28;20290;-70
2022/08/01 04:16:22;;;;;;;2.00;1.80;;;;;;;20.81;64.14;98171.59;5052757;28;20209;-70
2022/08/01 04:18:48;;;;;;;2.30;1.83;;;;;;;20.81;64.29;98174.28;5052664;28;20707;-70
2022/08/01 04:21:18;;;;;;;2.03;1.93;;;;;;;20.89;64.10;98166.38;5052660;28;20209;-70
2022/08/01 04:23:47;;;;;;;2.43;1.67;;;;;;;20.87;64.36;98165.03;5052898;28;20292;-70
2022/08/01 04:26:16;;;;;;;1.93;1.80;;;;;;;20.91;64.28;98171.53;5052713;28;20209;-70
2022/08/01 04:28:44;;;;;;;2.60;1.80;;;;;;;20.94;64.73;98176.38;5052769;28;20237;-70
2022/08/01 04:31:12;;;;;;;1.70;1.60;;;;;;;20.93;64.74;98177.47;5052712;28;20280;-70
2022/08/01 04:33:45;;;;;;;2.93;1.90;;;;;;;21.05;64.05;98173.31;5052764;28;20211;-70
2022/08/01 04:36:13;;;;;;;2.73;1.47;;;;;;;21.06;64.38;98180.31;5052396;28;20205;-70
2022/08/01 04:38:42;;;;;;;1.97;1.87;;;;;;;21.10;64.17;98183.25;5019213;28;20229;-70
2022/08/01 04:41:13;;;;;;;1.80;1.70;;;;;;;21.08;64.19;98188.16;5052800;28;20205;-70
2022/08/01 04:43:41;;;;;;;3.13;2.00;;;;;;;21.11;64.33;98184.91;5052273;28;20189;-70
2022/08/01 04:46:08;;;;;;;1.77;1.67;;;;;;;21.13;64.06;98185.41;5052543;28;20239;-70
2022/08/01 04:48:39;;;;;;;1.80;1.70;;;;;;;21.15;64.56;98194.03;5052451;28;20664;-70
2022/08/01 04:51:13;;;;;;;2.27;1.90;;;;;;;21.19;64.65;98192.38;5052595;28;20205;-70
2022/08/01 04:53:39;;;;;;;2.57;1.80;;;;;;;21.21;64.62;98179.41;5052304;28;20202;-70
2022/08/01 04:56:06;;;;;;;1.63;1.53;;;;;;;21.23;64.56;98188.03;5052660;28;20297;-70
2022/08/01 04:58:32;;;;;;;2.63;1.80;;;;;;;21.32;64.23;98180.91;5052271;28;20209;-70
2022/08/01 05:00:59;;;;;;;1.33;1.30;;;;;;;21.31;64.31;98176.59;5052340;28;20205;-70
2022/08/01 05:03:25;;;;;;;4.13;2.50;;;;;;;21.32;64.45;98175.50;5051893;28;20742;-70
2022/08/01 05:05:52;;;;;;;5.23;2.30;;;;;;;21.78;63.14;98173.97;5052597;28;20205;-70
2022/08/01 05:08:18;;;;;;;2.43;1.90;;;;;;;22.28;60.86;98176.06;5054253;28;20209;-70
2022/08/01 05:10:44;;;;;;;1.70;1.60;;;;;;;22.65;59.40;98166.09;5055626;28;20672;-70
2022/08/01 05:13:11;;;;;;;2.13;1.93;;;;;;;22.61;59.56;98172.41;5055491;28;20221;-70
2022/08/01 05:15:37;;;;;;;1.80;1.60;;;;;;;22.29;60.19;98175.78;5055948;28;20205;-70
2022/08/01 05:18:04;;;;;;;1.98;1.88;;;;;;;22.07;60.75;98177.44;5055425;28;20541;-70
2022/08/01 05:20:31;;;;;;;2.20;2.00;;;;;;;21.95;61.53;98177.03;5055739;28;20328;-70
2022/08/01 05:22:58;;;;;;;2.47;1.67;;;;;;;21.87;61.50;98174.97;5055540;28;20201;-70
2022/08/01 05:25:24;;;;;;;1.80;1.57;;;;;;;21.75;61.71;98175.38;5055075;28;20691;-70
2022/08/01 05:27:51;;;;;;;2.03;1.57;;;;;;;21.76;61.73;98171.59;5055256;28;20764;-69
2022/08/01 05:30:17;;;;;;;2.23;1.77;;;;;;;21.79;61.78;98175.63;5055360;28;20719;-69
2022/08/01 05:32:44;;;;;;;1.80;1.60;;;;;;;21.85;61.73;98186.09;5054841;28;20251;-69
2022/08/01 05:35:10;;;;;;;2.03;1.83;;;;;;;21.95;61.66;98185.16;5055106;28;20300;-69
2022/08/01 05:37:37;;;;;;;2.67;1.80;;;;;;;22.11;61.26;98183.91;5054741;28;20304;-70
2022/08/01 05:40:04;;;;;;;2.27;1.87;;;;;;;22.15;61.19;98185.72;5055079;28;20734;-69
2022/08/01 05:42:31;;;;;;;1.70;1.60;;;;;;;22.41;61.03;98195.16;5055309;28;20201;-69
2022/08/01 05:44:57;;;;;;;2.23;1.70;;;;;;;22.40;60.43;98185.41;5055271;28;20201;-69
2022/08/01 05:47:23;;;;;;;2.77;1.83;;;;;;;22.58;60.60;98191.97;5055527;28;20201;-69
2022/08/01 05:49:50;;;;;;;2.00;1.87;;;;;;;22.66;60.57;98196.72;5055138;28;20315;-69
2022/08/01 05:52:16;;;;;;;2.20;1.50;;;;;;;22.60;60.37;98192.47;5055061;28;20233;-70
2022/08/01 05:54:43;;;;;;;3.63;1.50;;;;;;;22.70;60.79;98192.34;5054943;28;20212;-70
2022/08/01 05:57:09;;;;;;;1.77;1.67;;;;;;;22.67;60.66;98193.75;5054906;28;20288;-70
2022/08/01 05:59:36;;;;;;;3.73;1.70;;;;;;;22.61;60.81;98196.81;5054909;28;20235;-70
2022/08/01 06:02:02;;;;;;;4.87;1.70;;;;;;;22.86;60.55;98196.44;5054653;28;20304;-70
2022/08/01 06:04:28;;;;;;;3.47;1.60;;;;;;;22.77;60.94;98190.88;5054799;28;20213;-69
2022/08/01 06:06:55;;;;;;;2.17;1.63;;;;;;;22.84;60.46;98195.94;5054951;28;20209;-70
2022/08/01 06:09:21;;;;;;;1.90;1.60;;;;;;;22.85;60.86;98189.41;5054627;28;20552;-70
2022/08/01 06:11:48;;;;;;;1.48;1.30;;;;;;;22.99;60.62;98185.66;5054339;28;20676;-70
2022/08/01 06:14:14;;;;;;;2.53;1.50;;;;;;;23.11;60.16;98196.03;5054756;28;20292;-70
2022/08/01 06:16:40;;;;;;;3.03;1.80;;;;;;;23.22;60.02;98186.66;5054732;28;20292;-70
2022/08/01 06:19:07;;;;;;;1.90;1.40;;;;;;;23.11;60.12;98196.84;5053046;28;20229;-70
2022/08/01 06:21:33;;;;;;;1.35;1.25;;;;;;;23.11;60.22;98188.69;5055055;28;20205;-70
2022/08/01 06:24:00;;;;;;;1.92;1.30;;;;;;;23.28;59.74;98189.00;5055547;28;20212;-70
2022/08/01 06:26:26;;;;;;;1.30;1.20;;;;;;;23.07;60.30;98197.72;5054934;28;20668;-70
2022/08/01 06:28:52;;;;;;;1.63;1.50;;;;;;;23.09;60.48;98192.81;5054228;28;20245;-70
2022/08/01 06:31:19;;;;;;;1.60;1.50;;;;;;;22.98;60.79;98192.16;5041927;28;20285;-70
2022/08/01 06:33:45;;;;;;;1.50;1.40;;;;;;;23.21;60.06;98187.78;5034587;28;20275;-71
2022/08/01 06:36:12;;;;;;;2.78;2.58;;;;;;;23.31;59.81;98193.00;5034404;28;20632;-71
2022/08/01 06:38:38;;;;;;;1.55;1.45;;;;;;;23.09;60.24;98198.22;5034104;28;20788;-70
2022/08/01 06:41:04;;;;;;;1.38;1.27;;;;;;;22.99;60.56;98190.25;5034186;28;20205;-71
2022/08/01 06:43:31;;;;;;;1.40;1.30;;;;;;;23.03;60.48;98192.09;5034296;28;20293;-72
2022/08/01 06:45:57;;;;;;;1.48;1.30;;;;;;;23.12;60.25;98197.66;5034276;28;20288;-71
2022/08/01 06:48:24;;;;;;;4.13;1.70;;;;;;;23.08;60.25;98191.19;5034328;28;20221;-71
2022/08/01 06:51:07;;;;;;;1.33;1.10;;;;;;;23.20;59.91;98194.31;5034131;28;20574;-71
2022/08/01 06:53:34;;;;;;;1.30;1.20;;;;;;;23.27;60.11;98202.84;5034047;28;20297;-71
2022/08/01 06:56:00;;;;;;;3.55;1.45;;;;;;;23.40;59.71;98196.66;5034140;28;20302;-70
2022/08/01 06:58:27;;;;;;;3.95;2.20;;;;;;;23.46;59.28;98198.16;5034527;28;20300;-71
2022/08/01 07:00:53;;;;;;;1.63;1.35;;;;;;;23.43;59.28;98196.88;5033846;28;20206;-71
2022/08/01 07:03:19;;;;;;;4.25;3.55;;;;;;;23.44;58.69;98200.41;5033715;28;20724;-71
2022/08/01 07:05:46;;;;;;;2.05;1.40;;;;;;;23.71;57.88;98198.56;5033875;28;20209;-71
2022/08/01 07:08:12;;;;;;;4.88;1.33;;;;;;;23.47;58.52;98205.25;5033896;28;20293;-71
2022/08/01 07:10:39;;;;;;;1.90;1.48;;;;;;;23.45;59.12;98196.56;5034235;28;20232;-71
2022/08/01 07:13:05;;;;;;;1.40;1.30;;;;;;;23.38;58.88;98196.16;5033578;28;20232;-71
2022/08/01 07:15:31;;;;;;;5.13;1.40;;;;;;;23.57;58.64;98197.69;5033861;28;20206;-71
2022/08/01 07:18:01;;;;;;;1.70;1.50;;;;;;;23.91;57.49;98202.81;5033798;28;20237;-70
2022/08/01 07:20:27;;;;;;;3.15;2.88;;;;;;;23.84;57.08;98202.38;5033488;28;20230;-71
2022/08/01 07:22:54;;;;;;;2.55;2.20;;;;;;;23.90;57.15;98198.47;5033752;28;20201;-70
2022/08/01 07:25:20;;;;;;;6.32;5.03;;;;;;;23.80;57.78;98202.19;5033628;28;20228;-71
2022/08/01 07:27:46;;;;;;;1.90;1.80;;;;;;;24.02;58.36;98199.59;5032989;28;20214;-71
2022/08/01 07:30:13;;;;;;;2.00;1.63;;;;;;;23.61;57.93;98193.28;5032846;28;20324;-71
2022/08/01 07:32:40;;;;;;;5.20;2.88;;;;;;;23.77;58.33;98197.34;5033648;28;20229;-70
2022/08/01 07:35:07;;;;;;;4.43;4.03;;;;;;;23.75;58.21;98194.09;5033407;28;20244;-70
2022/08/01 07:37:33;;;;;;;5.90;2.40;;;;;;;23.90;57.29;98191.16;5033309;28;20241;-71
2022/08/01 07:39:59;;;;;;;7.72;6.15;;;;;;;24.13;56.68;98187.44;5033579;28;20297;-71
2022/08/01 07:42:26;;;;;;;1.90;1.80;;;;;;;24.20;56.46;98189.75;5033369;28;20541;-70
2022/08/01 07:44:52;;;;;;;1.50;1.40;;;;;;;24.07;56.72;98191.38;5033348;28;20205;-71
2022/08/01 07:47:27;;;;;;;11.68;6.90;;;;;;;23.84;57.26;98192.31;5033599;28;20212;-71
2022/08/01 07:50:00;;;;;;;9.07;8.07;;;;;;;23.81;56.77;98187.50;5033665;28;20236;-71
2022/08/01 07:52:27;;;;;;;1.88;1.50;;;;;;;23.79;56.97;98189.69;5033017;28;20640;-71
2022/08/01 07:54:54;;;;;;;2.53;2.30;;;;;;;24.08;56.10;98186.72;5033000;28;20221;-71
2022/08/01 07:57:21;;;;;;;2.75;2.40;;;;;;;24.13;56.15;98192.06;5033175;28;20305;-70
2022/08/01 07:59:47;;;;;;;2.40;2.15;;;;;;;24.10;55.96;98187.25;5033536;28;20225;-71
2022/08/01 08:02:14;;;;;;;2.35;1.70;;;;;;;24.08;55.96;98187.53;5033379;28;20206;-71
2022/08/01 08:04:40;;;;;;;3.58;2.00;;;;;;;24.30;56.17;98184.09;5032876;28;20293;-71
2022/08/01 08:07:07;;;;;;;3.38;1.52;;;;;;;24.62;54.58;98184.78;5033268;28;20296;-71
2022/08/01 08:09:33;;;;;;;4.15;3.28;;;;;;;24.81;54.37;98179.16;5033174;28;20673;-70
2022/08/01 08:12:00;;;;;;;1.70;1.60;;;;;;;24.41;55.56;98188.19;5039718;28;20194;-71
2022/08/01 08:14:26;;;;;;;3.05;1.80;;;;;;;24.94;54.71;98183.75;5053012;28;20232;-71
2022/08/01 08:16:52;;;;;;;2.65;1.75;;;;;;;24.96;53.43;98187.00;5053137;28;20202;-71
2022/08/01 08:19:19;;;;;;;3.70;2.50;;;;;;;24.37;55.06;98184.50;5053043;28;20251;-71
2022/08/01 08:21:45;;;;;;;1.90;1.60;;;;;;;24.55;55.50;98178.09;5052855;28;20208;-71
2022/08/01 08:24:23;;;;;;;2.33;2.10;;;;;;;25.04;55.11;98187.06;5052526;28;20748;-71
2022/08/01 08:26:54;;;;;;;2.42;1.95;;;;;;;25.13;53.66;98189.81;5053139;28;20194;-71
2022/08/01 08:29:22;;;;;;;5.80;1.90;;;;;;;24.64;54.97;98179.00;5052514;28;20339;-70
2022/08/01 08:31:50;;;;;;;2.60;1.92;;;;;;;24.37;55.43;98181.78;5053122;28;20201;-72
2022/08/01 08:34:17;;;;;;;4.57;1.83;;;;;;;24.63;55.14;98182.84;5052661;28;20224;-71
2022/08/01 08:36:43;;;;;;;3.80;1.80;;;;;;;24.78;56.06;98183.31;5052913;28;20213;-71
2022/08/01 08:39:10;;;;;;;4.07;2.33;;;;;;;24.74;54.77;98178.81;5042414;28;20218;-71
2022/08/01 08:41:37;;;;;;;2.67;2.40;;;;;;;24.90;54.23;98177.31;5032700;28;20216;-71
2022/08/01 08:44:08;;;;;;;2.72;2.30;;;;;;;24.68;54.14;98182.72;5035950;28;20260;-71
2022/08/01 08:46:48;;;;;;;3.05;2.38;;;;;;;24.38;54.96;98186.88;5036316;28;20206;-71
2022/08/01 08:49:20;;;;;;;10.40;7.85;;;;;;;24.48;55.15;98183.97;5036905;28;20312;-71
2022/08/01 08:51:49;;;;;;;3.33;2.85;;;;;;;24.71;54.82;98179.41;5036813;28;20231;-71
2022/08/01 08:54:17;;;;;;;2.50;2.30;;;;;;;25.31;53.85;98172.53;5036592;28;20316;-71
2022/08/01 08:56:46;;;;;;;5.88;5.38;;;;;;;25.35;52.29;98182.50;5036033;28;20210;-72
2022/08/01 08:59:14;;;;;;;3.60;2.80;;;;;;;25.21;53.29;98178.19;5036409;28;20659;-71
2022/08/01 09:01:40;;;;;;;4.32;3.35;;;;;;;25.39;52.06;98180.78;5036154;28;20217;-71
2022/08/01 09:04:07;;;;;;;11.55;10.40;;;;;;;25.30;52.48;98170.94;5036109;28;20206;-72
2022/08/01 09:06:33;;;;;;;3.65;2.78;;;;;;;25.75;51.21;98178.72;5036205;28;20250;-70
2022/08/01 09:09:00;;;;;;;4.25;2.85;;;;;;;25.79;51.25;98184.34;5036118;28;20226;-70
2022/08/01 09:11:27;;;;;;;4.13;3.08;;;;;;;25.71;51.36;98176.91;5036779;28;20216;-71
2022/08/01 09:14:08;;;;;;;3.08;2.28;;;;;;;25.65;51.50;98187.13;5035809;28;20225;-70
2022/08/01 09:16:37;;;;;;;4.18;2.97;;;;;;;25.48;51.68;98178.91;5036032;28;20189;-70
2022/08/01 09:19:12;;;;;;;3.08;2.78;;;;;;;25.36;52.32;98183.28;5036023;28;20230;-71
2022/08/01 09:21:40;;;;;;;3.05;2.72;;;;;;;25.46;51.57;98180.31;5036523;28;20215;-70
2022/08/01 09:24:16;;;;;;;3.95;3.55;;;;;;;25.55;52.38;98175.75;5036592;28;20198;-70
2022/08/01 09:26:44;;;;;;;3.80;1.90;;;;;;;26.01;50.90;98187.81;5035974;28;20220;-70
2022/08/01 09:29:20;;;;;;;3.92;2.33;;;;;;;25.72;51.61;98190.22;5035439;28;20234;-70
2022/08/01 09:31:47;;;;;;;5.00;3.58;;;;;;;25.66;51.58;98190.69;5035790;28;20205;-70
2022/08/01 09:34:14;;;;;;;6.13;4.13;;;;;;;25.51;51.91;98193.81;5036084;28;20229;-70
2022/08/01 09:36:52;;;;;;;3.80;2.60;;;;;;;25.78;50.91;98190.91;5035937;28;20599;-69
2022/08/01 09:39:20;;;;;;;3.28;2.97;;;;;;;25.77;51.66;98195.53;5035736;28;20312;-69
2022/08/01 09:41:47;;;;;;;3.40;2.92;;;;;;;26.21;49.57;98197.34;5035762;28;20210;-70
2022/08/01 09:44:17;;;;;;;5.45;3.20;;;;;;;25.70;50.71;98197.13;5035952;28;20213;-71
2022/08/01 09:46:54;;;;;;;6.38;3.22;;;;;;;25.91;50.70;98198.19;5035770;28;20213;-70
2022/08/01 09:49:33;;;;;;;3.80;3.15;;;;;;;25.84;50.29;98197.81;5035593;28;20237;-70
2022/08/01 09:52:14;;;;;;;5.60;3.25;;;;;;;25.97;50.53;98207.84;5035215;28;20669;-70
2022/08/01 09:54:42;;;;;;;5.25;3.65;;;;;;;25.88;50.87;98199.59;5035017;28;20574;-69
2022/08/01 09:57:16;;;;;;;6.07;3.50;;;;;;;26.31;50.01;98195.13;5035120;28;20546;-70
2022/08/01 09:59:47;;;;;;;4.43;3.83;;;;;;;26.45;49.49;98200.44;5035067;28;20708;-71
2022/08/01 10:02:27;;;;;;;5.10;3.90;;;;;;;26.41;49.24;98203.00;5035209;28;20196;-70
2022/08/01 10:04:54;;;;;;;4.70;3.90;;;;;;;26.66;48.36;98188.66;5035423;28;20182;-70
2022/08/01 10:07:22;;;;;;;4.05;3.65;;;;;;;26.13;50.31;98192.66;5035326;28;20213;-70
2022/08/01 10:09:49;;;;;;;3.50;3.20;;;;;;;26.60;48.32;98183.69;5034730;28;20775;-70
2022/08/01 10:12:20;;;;;;;3.22;2.90;;;;;;;26.36;49.15;98183.28;5034673;28;20669;-70
2022/08/01 10:14:49;;;;;;;3.40;3.10;;;;;;;27.10;47.18;98173.91;5034555;28;20233;-70
2022/08/01 10:17:18;;;;;;;4.57;3.30;;;;;;;27.01;47.45;98173.88;5035088;28;20206;-70
2022/08/01 10:19:45;;;;;;;3.40;3.10;;;;;;;26.61;47.62;98188.81;5034877;28;20313;-70
2022/08/01 10:22:16;;;;;;;4.20;2.85;;;;;;;27.10;46.98;98179.38;5034967;28;20206;-69
2022/08/01 10:24:45;;;;;;;5.20;3.50;;;;;;;26.77;46.44;98170.03;5035028;28;20190;-70
2022/08/01 10:27:14;;;;;;;2.88;2.55;;;;;;;26.81;46.77;98173.72;5034424;28;20309;-71
2022/08/01 10:29:47;;;;;;;2.55;2.35;;;;;;;26.67;47.06;98167.63;5034176;28;20717;-70
2022/08/01 10:32:14;;;;;;;2.65;2.45;;;;;;;26.58;47.27;98167.63;5035335;28;20260;-71
2022/08/01 10:34:41;;;;;;;4.57;4.25;;;;;;;26.89;47.03;98160.13;5034325;28;20237;-70
2022/08/01 10:37:07;;;;;;;2.30;2.20;;;;;;;27.19;45.73;98158.34;5034560;28;20297;-70
2022/08/01 10:39:34;;;;;;;2.80;2.30;;;;;;;27.08;46.06;98159.75;5034002;28;20734;-69
2022/08/01 10:42:01;;;;;;;2.10;1.90;;;;;;;26.95;46.05;98158.00;5033925;28;20202;-70
2022/08/01 10:44:31;;;;;;;2.88;2.47;;;;;;;26.92;46.55;98162.19;5033969;28;20210;-70
2022/08/01 10:47:14;;;;;;;2.35;2.15;;;;;;;26.08;48.79;98168.28;5034006;28;20210;-70
2022/08/01 10:50:26;;;;;;;3.15;2.85;;;;;;;26.39;47.90;98177.19;5033621;28;20241;-71
2022/08/01 10:53:23;;;;;;;3.63;3.33;;;;;;;26.17;48.48;98169.94;4992509;28;20245;-70
2022/08/01 10:56:00;;;;;;;5.00;2.83;;;;;;;26.44;47.21;98163.41;4992758;28;20187;-70
2022/08/01 10:58:37;;;;;;;3.42;2.30;;;;;;;27.47;46.78;98147.84;5025808;28;20207;-70
2022/08/01 11:01:22;;;;;;;3.40;2.13;;;;;;;27.69;44.57;98153.88;5033785;28;20641;-70
2022/08/01 11:03:59;;;;;;;3.03;2.20;;;;;;;27.36;44.81;98141.94;5034306;28;20282;-70
2022/08/01 11:06:36;;;;;;;2.42;2.30;;;;;;;27.05;45.20;98152.25;5033669;28;20587;-69
2022/08/01 11:09:20;;;;;;;2.30;2.10;;;;;;;26.76;45.88;98147.44;5034073;28;20225;-70
2022/08/01 11:12:08;;;;;;;2.67;2.47;;;;;;;26.54;47.17;98135.81;5033991;28;20225;-70
2022/08/01 11:14:55;;;;;;;3.75;2.45;;;;;;;26.94;46.77;98140.03;5033634;28;20217;-71
2022/08/01 11:17:51;;;;;;;3.53;2.28;;;;;;;26.59;46.16;98133.00;5033687;28;20206;-70
2022/08/01 11:20:29;;;;;;;3.45;2.30;;;;;;;26.77;46.02;98137.31;5015300;28;20253;-70
2022/08/01 11:23:03;;;;;;;3.63;2.30;;;;;;;26.98;45.82;98125.44;5033299;28;20186;-70
2022/08/01 11:25:40;;;;;;;3.00;2.63;;;;;;;27.58;44.35;98130.78;5033494;28;20209;-70
2022/08/01 11:28:16;;;;;;;2.30;2.10;;;;;;;27.57;44.41;98126.44;5033783;28;20304;-70
2022/08/01 11:30:42;;;;;;;4.50;2.35;;;;;;;26.84;45.02;98119.34;5033189;28;20214;-70
2022/08/01 11:33:09;;;;;;;4.88;2.33;;;;;;;26.98;45.56;98113.72;5033320;28;20252;-70
2022/08/01 11:35:37;;;;;;;3.17;2.50;;;;;;;26.92;45.07;98123.97;5033732;28;20289;-70
2022/08/01 11:38:27;;;;;;;3.30;3.00;;;;;;;26.67;45.34;98116.63;5033426;28;20209;-70
2022/08/01 11:41:14;;;;;;;3.90;2.90;;;;;;;26.80;46.01;98114.84;5033479;28;20210;-70
2022/08/01 11:43:59;;;;;;;3.67;2.58;;;;;;;27.01;45.16;98107.63;5033391;28;20212;-71
2022/08/01 11:46:47;;;;;;;4.25;2.42;;;;;;;27.16;44.46;98104.38;5033601;28;20205;-70